sensor_id;sensor_type;location;lat;lon;timestamp;P1;durP1;ratioP1;P2;durP2;ratioP2
51248;SDS011;39642;47.556;18.728;2023-10-19T00:00:36;14.15;;;6.50;;
51248;SDS011;39642;47.556;18.728;2023-10-19T00:03:10;14.23;;;6.65;;
51248;SDS011;39642;47.556;18.728;2023-10-19T00:05:37;15.90;;;6.70;;
51248;SDS011;39642;47.556;18.728;2023-10-19T00:08:04;14.18;;;6.95;;
51248;SDS011;39642;47.556;18.728;2023-10-19T00:10:41;13.13;;;5.97;;
51248;SDS011;39642;47.556;18.728;2023-10-19T00:13:09;13.48;;;6.43;;
51248;SDS011;39642;47.556;18.728;2023-10-19T00:15:37;14.77;;;6.70;;
51248;SDS011;39642;47.556;18.728;2023-10-19T00:18:12;14.60;;;6.60;;
51248;SDS011;39642;47.556;18.728;2023-10-19T00:20:49;13.60;;;6.50;;
51248;SDS011;39642;47.556;18.728;2023-10-19T00:23:27;14.87;;;6.80;;
51248;SDS011;39642;47.556;18.728;2023-10-19T00:25:58;13.93;;;6.70;;
51248;SDS011;39642;47.556;18.728;2023-10-19T00:28:24;14.65;;;6.50;;
51248;SDS011;39642;47.556;18.728;2023-10-19T00:30:53;12.98;;;5.87;;
51248;SDS011;39642;47.556;18.728;2023-10-19T00:33:25;13.25;;;6.43;;
51248;SDS011;39642;47.556;18.728;2023-10-19T00:35:54;13.60;;;6.03;;
51248;SDS011;39642;47.556;18.728;2023-10-19T00:38:39;13.77;;;6.05;;
51248;SDS011;39642;47.556;18.728;2023-10-19T00:41:15;12.20;;;6.00;;
51248;SDS011;39642;47.556;18.728;2023-10-19T00:44:03;12.48;;;6.32;;
51248;SDS011;39642;47.556;18.728;2023-10-19T00:46:32;14.05;;;6.05;;
51248;SDS011;39642;47.556;18.728;2023-10-19T00:49:03;13.95;;;6.40;;
51248;SDS011;39642;47.556;18.728;2023-10-19T00:51:34;14.82;;;6.22;;
51248;SDS011;39642;47.556;18.728;2023-10-19T00:54:15;13.65;;;6.53;;
51248;SDS011;39642;47.556;18.728;2023-10-19T00:56:47;14.95;;;6.53;;
51248;SDS011;39642;47.556;18.728;2023-10-19T00:59:19;14.38;;;6.47;;
51248;SDS011;39642;47.556;18.728;2023-10-19T01:01:55;14.48;;;6.15;;
51248;SDS011;39642;47.556;18.728;2023-10-19T01:04:29;12.15;;;6.12;;
51248;SDS011;39642;47.556;18.728;2023-10-19T01:06:59;12.82;;;5.82;;
51248;SDS011;39642;47.556;18.728;2023-10-19T01:09:37;14.95;;;6.87;;
51248;SDS011;39642;47.556;18.728;2023-10-19T01:12:04;14.55;;;6.30;;
51248;SDS011;39642;47.556;18.728;2023-10-19T01:17:36;13.57;;;6.32;;
51248;SDS011;39642;47.556;18.728;2023-10-19T01:20:08;14.13;;;6.12;;
51248;SDS011;39642;47.556;18.728;2023-10-19T01:22:52;15.55;;;6.55;;
51248;SDS011;39642;47.556;18.728;2023-10-19T01:25:53;12.43;;;6.18;;
51248;SDS011;39642;47.556;18.728;2023-10-19T01:28:22;12.98;;;6.12;;
51248;SDS011;39642;47.556;18.728;2023-10-19T01:31:08;13.55;;;6.22;;
51248;SDS011;39642;47.556;18.728;2023-10-19T01:33:40;14.25;;;6.50;;
51248;SDS011;39642;47.556;18.728;2023-10-19T01:36:08;12.85;;;6.12;;
51248;SDS011;39642;47.556;18.728;2023-10-19T01:38:40;13.98;;;6.87;;
51248;SDS011;39642;47.556;18.728;2023-10-19T01:41:07;13.10;;;5.80;;
51248;SDS011;39642;47.556;18.728;2023-10-19T01:43:42;14.05;;;6.20;;
51248;SDS011;39642;47.556;18.728;2023-10-19T01:46:11;12.45;;;5.60;;
51248;SDS011;39642;47.556;18.728;2023-10-19T01:48:41;14.05;;;6.22;;
51248;SDS011;39642;47.556;18.728;2023-10-19T01:51:09;13.13;;;6.10;;
51248;SDS011;39642;47.556;18.728;2023-10-19T01:53:38;12.77;;;6.00;;
51248;SDS011;39642;47.556;18.728;2023-10-19T01:56:10;14.57;;;6.15;;
51248;SDS011;39642;47.556;18.728;2023-10-19T01:58:38;13.35;;;6.10;;
51248;SDS011;39642;47.556;18.728;2023-10-19T02:01:05;12.43;;;5.97;;
51248;SDS011;39642;47.556;18.728;2023-10-19T02:03:41;13.77;;;6.30;;
51248;SDS011;39642;47.556;18.728;2023-10-19T02:06:10;12.68;;;5.78;;
51248;SDS011;39642;47.556;18.728;2023-10-19T02:08:40;12.55;;;5.85;;
51248;SDS011;39642;47.556;18.728;2023-10-19T02:11:06;12.23;;;5.82;;
51248;SDS011;39642;47.556;18.728;2023-10-19T02:13:47;12.60;;;5.70;;
51248;SDS011;39642;47.556;18.728;2023-10-19T02:16:15;13.40;;;6.18;;
51248;SDS011;39642;47.556;18.728;2023-10-19T02:18:42;13.30;;;6.30;;
51248;SDS011;39642;47.556;18.728;2023-10-19T02:21:09;12.32;;;5.45;;
51248;SDS011;39642;47.556;18.728;2023-10-19T02:23:40;12.80;;;6.20;;
51248;SDS011;39642;47.556;18.728;2023-10-19T02:26:09;11.97;;;5.77;;
51248;SDS011;39642;47.556;18.728;2023-10-19T02:28:39;13.82;;;6.30;;
51248;SDS011;39642;47.556;18.728;2023-10-19T02:31:05;12.98;;;5.93;;
51248;SDS011;39642;47.556;18.728;2023-10-19T02:33:45;13.48;;;6.07;;
51248;SDS011;39642;47.556;18.728;2023-10-19T02:36:18;13.52;;;6.35;;
51248;SDS011;39642;47.556;18.728;2023-10-19T02:38:45;14.35;;;6.15;;
51248;SDS011;39642;47.556;18.728;2023-10-19T02:41:16;14.38;;;6.65;;
51248;SDS011;39642;47.556;18.728;2023-10-19T02:43:46;12.50;;;6.00;;
51248;SDS011;39642;47.556;18.728;2023-10-19T02:46:16;12.80;;;5.82;;
51248;SDS011;39642;47.556;18.728;2023-10-19T02:48:43;13.05;;;5.72;;
51248;SDS011;39642;47.556;18.728;2023-10-19T02:51:10;12.35;;;6.05;;
51248;SDS011;39642;47.556;18.728;2023-10-19T02:53:38;11.93;;;5.70;;
51248;SDS011;39642;47.556;18.728;2023-10-19T02:56:15;12.35;;;5.87;;
51248;SDS011;39642;47.556;18.728;2023-10-19T02:58:49;14.85;;;6.15;;
51248;SDS011;39642;47.556;18.728;2023-10-19T03:01:16;13.98;;;6.10;;
51248;SDS011;39642;47.556;18.728;2023-10-19T03:03:50;13.18;;;5.78;;
51248;SDS011;39642;47.556;18.728;2023-10-19T03:06:20;12.93;;;5.80;;
51248;SDS011;39642;47.556;18.728;2023-10-19T03:08:48;14.45;;;6.00;;
51248;SDS011;39642;47.556;18.728;2023-10-19T03:11:25;12.43;;;5.80;;
51248;SDS011;39642;47.556;18.728;2023-10-19T03:13:54;12.15;;;5.82;;
51248;SDS011;39642;47.556;18.728;2023-10-19T03:16:21;13.25;;;6.00;;
51248;SDS011;39642;47.556;18.728;2023-10-19T03:18:47;14.00;;;6.18;;
51248;SDS011;39642;47.556;18.728;2023-10-19T03:21:13;11.95;;;5.90;;
51248;SDS011;39642;47.556;18.728;2023-10-19T03:23:39;13.27;;;5.97;;
51248;SDS011;39642;47.556;18.728;2023-10-19T03:26:06;13.93;;;6.05;;
51248;SDS011;39642;47.556;18.728;2023-10-19T03:28:51;12.70;;;5.90;;
51248;SDS011;39642;47.556;18.728;2023-10-19T03:31:28;15.05;;;5.90;;
51248;SDS011;39642;47.556;18.728;2023-10-19T03:33:54;13.55;;;6.28;;
51248;SDS011;39642;47.556;18.728;2023-10-19T03:36:21;13.18;;;6.55;;
51248;SDS011;39642;47.556;18.728;2023-10-19T03:38:48;12.13;;;5.57;;
51248;SDS011;39642;47.556;18.728;2023-10-19T03:41:19;12.07;;;6.03;;
51248;SDS011;39642;47.556;18.728;2023-10-19T03:43:55;12.82;;;6.40;;
51248;SDS011;39642;47.556;18.728;2023-10-19T03:46:23;12.30;;;5.80;;
51248;SDS011;39642;47.556;18.728;2023-10-19T03:49:12;13.73;;;6.22;;
51248;SDS011;39642;47.556;18.728;2023-10-19T03:51:37;12.00;;;5.90;;
51248;SDS011;39642;47.556;18.728;2023-10-19T03:54:26;14.68;;;6.85;;
51248;SDS011;39642;47.556;18.728;2023-10-19T03:56:53;13.57;;;6.78;;
51248;SDS011;39642;47.556;18.728;2023-10-19T03:59:23;12.98;;;6.28;;
51248;SDS011;39642;47.556;18.728;2023-10-19T04:01:55;14.00;;;6.40;;
51248;SDS011;39642;47.556;18.728;2023-10-19T04:04:21;13.77;;;6.50;;
51248;SDS011;39642;47.556;18.728;2023-10-19T04:06:47;13.70;;;6.85;;
51248;SDS011;39642;47.556;18.728;2023-10-19T04:09:13;12.48;;;6.07;;
51248;SDS011;39642;47.556;18.728;2023-10-19T04:11:44;13.27;;;6.53;;
51248;SDS011;39642;47.556;18.728;2023-10-19T04:14:33;13.60;;;7.03;;
51248;SDS011;39642;47.556;18.728;2023-10-19T04:16:59;12.90;;;6.72;;
51248;SDS011;39642;47.556;18.728;2023-10-19T04:19:25;14.00;;;6.68;;
51248;SDS011;39642;47.556;18.728;2023-10-19T04:21:54;17.27;;;7.53;;
51248;SDS011;39642;47.556;18.728;2023-10-19T04:24:21;15.35;;;6.70;;
51248;SDS011;39642;47.556;18.728;2023-10-19T04:26:47;13.68;;;6.50;;
51248;SDS011;39642;47.556;18.728;2023-10-19T04:29:14;13.18;;;6.05;;
51248;SDS011;39642;47.556;18.728;2023-10-19T04:31:42;13.73;;;7.32;;
51248;SDS011;39642;47.556;18.728;2023-10-19T04:34:35;17.92;;;8.07;;
51248;SDS011;39642;47.556;18.728;2023-10-19T04:37:02;14.55;;;7.40;;
51248;SDS011;39642;47.556;18.728;2023-10-19T04:39:28;14.70;;;7.05;;
51248;SDS011;39642;47.556;18.728;2023-10-19T04:41:55;14.48;;;6.47;;
51248;SDS011;39642;47.556;18.728;2023-10-19T04:44:21;20.65;;;9.60;;
51248;SDS011;39642;47.556;18.728;2023-10-19T04:46:48;17.45;;;8.27;;
51248;SDS011;39642;47.556;18.728;2023-10-19T04:49:14;22.23;;;11.95;;
51248;SDS011;39642;47.556;18.728;2023-10-19T04:51:42;16.25;;;9.20;;
51248;SDS011;39642;47.556;18.728;2023-10-19T04:54:09;21.42;;;11.93;;
51248;SDS011;39642;47.556;18.728;2023-10-19T04:56:35;18.60;;;9.60;;
51248;SDS011;39642;47.556;18.728;2023-10-19T04:59:04;25.52;;;14.73;;
51248;SDS011;39642;47.556;18.728;2023-10-19T05:01:30;21.90;;;11.23;;
51248;SDS011;39642;47.556;18.728;2023-10-19T05:03:59;22.48;;;11.63;;
51248;SDS011;39642;47.556;18.728;2023-10-19T05:06:25;32.92;;;17.00;;
51248;SDS011;39642;47.556;18.728;2023-10-19T05:08:51;20.20;;;10.93;;
51248;SDS011;39642;47.556;18.728;2023-10-19T05:11:20;27.48;;;13.20;;
51248;SDS011;39642;47.556;18.728;2023-10-19T05:13:46;35.67;;;15.10;;
51248;SDS011;39642;47.556;18.728;2023-10-19T05:16:12;34.05;;;14.68;;
51248;SDS011;39642;47.556;18.728;2023-10-19T05:18:38;33.65;;;15.27;;
51248;SDS011;39642;47.556;18.728;2023-10-19T05:21:04;35.22;;;14.98;;
51248;SDS011;39642;47.556;18.728;2023-10-19T05:23:30;36.75;;;16.25;;
51248;SDS011;39642;47.556;18.728;2023-10-19T05:26:00;44.45;;;15.07;;
51248;SDS011;39642;47.556;18.728;2023-10-19T05:28:28;48.65;;;14.82;;
51248;SDS011;39642;47.556;18.728;2023-10-19T05:30:54;40.67;;;14.05;;
51248;SDS011;39642;47.556;18.728;2023-10-19T05:33:20;44.97;;;13.20;;
51248;SDS011;39642;47.556;18.728;2023-10-19T05:35:49;25.37;;;9.57;;
51248;SDS011;39642;47.556;18.728;2023-10-19T05:38:16;27.13;;;10.43;;
51248;SDS011;39642;47.556;18.728;2023-10-19T05:40:44;23.27;;;9.90;;
51248;SDS011;39642;47.556;18.728;2023-10-19T05:43:11;25.73;;;10.38;;
51248;SDS011;39642;47.556;18.728;2023-10-19T05:45:37;21.83;;;9.75;;
51248;SDS011;39642;47.556;18.728;2023-10-19T05:48:04;27.45;;;10.20;;
51248;SDS011;39642;47.556;18.728;2023-10-19T05:50:32;27.05;;;10.40;;
51248;SDS011;39642;47.556;18.728;2023-10-19T05:52:59;26.90;;;11.25;;
51248;SDS011;39642;47.556;18.728;2023-10-19T05:55:26;32.60;;;10.48;;
51248;SDS011;39642;47.556;18.728;2023-10-19T05:57:51;24.42;;;9.65;;
51248;SDS011;39642;47.556;18.728;2023-10-19T06:00:17;26.50;;;9.32;;
51248;SDS011;39642;47.556;18.728;2023-10-19T06:02:46;27.75;;;10.13;;
51248;SDS011;39642;47.556;18.728;2023-10-19T06:05:15;22.75;;;9.70;;
51248;SDS011;39642;47.556;18.728;2023-10-19T06:07:42;24.73;;;9.23;;
51248;SDS011;39642;47.556;18.728;2023-10-19T06:10:13;33.83;;;10.80;;
51248;SDS011;39642;47.556;18.728;2023-10-19T06:12:44;28.05;;;8.80;;
51248;SDS011;39642;47.556;18.728;2023-10-19T06:15:11;32.58;;;11.10;;
51248;SDS011;39642;47.556;18.728;2023-10-19T06:17:38;21.12;;;8.82;;
51248;SDS011;39642;47.556;18.728;2023-10-19T06:20:05;20.05;;;8.23;;
51248;SDS011;39642;47.556;18.728;2023-10-19T06:22:48;28.77;;;9.13;;
51248;SDS011;39642;47.556;18.728;2023-10-19T06:25:18;24.23;;;9.20;;
51248;SDS011;39642;47.556;18.728;2023-10-19T06:27:45;20.75;;;8.35;;
51248;SDS011;39642;47.556;18.728;2023-10-19T06:30:12;24.48;;;8.43;;
51248;SDS011;39642;47.556;18.728;2023-10-19T06:32:47;21.52;;;8.45;;
51248;SDS011;39642;47.556;18.728;2023-10-19T06:35:16;24.15;;;9.00;;
51248;SDS011;39642;47.556;18.728;2023-10-19T06:37:43;21.45;;;8.80;;
51248;SDS011;39642;47.556;18.728;2023-10-19T06:40:09;24.25;;;9.35;;
51248;SDS011;39642;47.556;18.728;2023-10-19T06:42:43;18.87;;;8.50;;
51248;SDS011;39642;47.556;18.728;2023-10-19T06:45:11;21.35;;;8.30;;
51248;SDS011;39642;47.556;18.728;2023-10-19T06:47:41;18.95;;;8.18;;
51248;SDS011;39642;47.556;18.728;2023-10-19T06:50:11;24.23;;;8.77;;
51248;SDS011;39642;47.556;18.728;2023-10-19T06:52:38;24.45;;;9.25;;
51248;SDS011;39642;47.556;18.728;2023-10-19T06:55:05;29.90;;;9.35;;
51248;SDS011;39642;47.556;18.728;2023-10-19T06:58:04;31.87;;;9.07;;
51248;SDS011;39642;47.556;18.728;2023-10-19T07:00:30;20.77;;;8.90;;
51248;SDS011;39642;47.556;18.728;2023-10-19T07:02:57;21.10;;;8.70;;
51248;SDS011;39642;47.556;18.728;2023-10-19T07:05:26;24.48;;;8.88;;
51248;SDS011;39642;47.556;18.728;2023-10-19T07:07:55;24.40;;;8.85;;
51248;SDS011;39642;47.556;18.728;2023-10-19T07:10:22;32.45;;;9.93;;
51248;SDS011;39642;47.556;18.728;2023-10-19T07:12:52;21.05;;;7.95;;
51248;SDS011;39642;47.556;18.728;2023-10-19T07:15:19;28.83;;;9.75;;
51248;SDS011;39642;47.556;18.728;2023-10-19T07:17:48;21.58;;;9.15;;
51248;SDS011;39642;47.556;18.728;2023-10-19T07:20:18;23.52;;;8.68;;
51248;SDS011;39642;47.556;18.728;2023-10-19T07:23:04;22.87;;;8.68;;
51248;SDS011;39642;47.556;18.728;2023-10-19T07:25:47;23.30;;;9.03;;
51248;SDS011;39642;47.556;18.728;2023-10-19T07:28:19;24.80;;;9.00;;
51248;SDS011;39642;47.556;18.728;2023-10-19T07:30:45;20.58;;;8.35;;
51248;SDS011;39642;47.556;18.728;2023-10-19T07:33:14;25.12;;;8.50;;
51248;SDS011;39642;47.556;18.728;2023-10-19T07:35:46;25.62;;;9.30;;
51248;SDS011;39642;47.556;18.728;2023-10-19T07:38:17;23.17;;;9.88;;
51248;SDS011;39642;47.556;18.728;2023-10-19T07:40:46;19.20;;;7.32;;
51248;SDS011;39642;47.556;18.728;2023-10-19T07:43:12;27.80;;;8.27;;
51248;SDS011;39642;47.556;18.728;2023-10-19T07:45:38;23.62;;;8.82;;
51248;SDS011;39642;47.556;18.728;2023-10-19T07:48:04;18.55;;;9.15;;
51248;SDS011;39642;47.556;18.728;2023-10-19T07:50:36;26.00;;;9.63;;
51248;SDS011;39642;47.556;18.728;2023-10-19T07:53:03;25.95;;;9.50;;
51248;SDS011;39642;47.556;18.728;2023-10-19T07:55:30;30.75;;;9.88;;
51248;SDS011;39642;47.556;18.728;2023-10-19T07:57:57;26.20;;;9.93;;
51248;SDS011;39642;47.556;18.728;2023-10-19T08:00:26;23.35;;;8.88;;
51248;SDS011;39642;47.556;18.728;2023-10-19T08:02:55;24.20;;;9.18;;
51248;SDS011;39642;47.556;18.728;2023-10-19T08:05:21;25.88;;;10.02;;
51248;SDS011;39642;47.556;18.728;2023-10-19T08:07:47;20.20;;;8.93;;
51248;SDS011;39642;47.556;18.728;2023-10-19T08:10:14;18.20;;;7.87;;
51248;SDS011;39642;47.556;18.728;2023-10-19T08:12:42;18.40;;;8.02;;
51248;SDS011;39642;47.556;18.728;2023-10-19T08:15:09;23.02;;;8.02;;
51248;SDS011;39642;47.556;18.728;2023-10-19T08:17:39;20.05;;;7.85;;
51248;SDS011;39642;47.556;18.728;2023-10-19T08:20:07;24.60;;;9.23;;
51248;SDS011;39642;47.556;18.728;2023-10-19T08:22:51;26.83;;;9.52;;
51248;SDS011;39642;47.556;18.728;2023-10-19T08:25:18;21.12;;;8.45;;
51248;SDS011;39642;47.556;18.728;2023-10-19T08:27:44;25.73;;;8.95;;
51248;SDS011;39642;47.556;18.728;2023-10-19T08:30:11;23.27;;;8.48;;
51248;SDS011;39642;47.556;18.728;2023-10-19T08:32:41;20.20;;;8.70;;
51248;SDS011;39642;47.556;18.728;2023-10-19T08:35:07;16.92;;;7.60;;
51248;SDS011;39642;47.556;18.728;2023-10-19T08:37:39;24.27;;;9.70;;
51248;SDS011;39642;47.556;18.728;2023-10-19T08:40:06;20.65;;;8.60;;
51248;SDS011;39642;47.556;18.728;2023-10-19T08:42:33;20.65;;;8.75;;
51248;SDS011;39642;47.556;18.728;2023-10-19T08:45:00;25.95;;;9.07;;
51248;SDS011;39642;47.556;18.728;2023-10-19T08:47:26;31.55;;;9.95;;
51248;SDS011;39642;47.556;18.728;2023-10-19T08:49:55;25.65;;;9.65;;
51248;SDS011;39642;47.556;18.728;2023-10-19T08:52:21;32.60;;;9.43;;
51248;SDS011;39642;47.556;18.728;2023-10-19T08:54:50;26.67;;;8.95;;
51248;SDS011;39642;47.556;18.728;2023-10-19T08:57:16;31.85;;;9.98;;
51248;SDS011;39642;47.556;18.728;2023-10-19T08:59:44;26.70;;;9.38;;
51248;SDS011;39642;47.556;18.728;2023-10-19T09:02:12;24.30;;;8.60;;
51248;SDS011;39642;47.556;18.728;2023-10-19T09:04:47;22.33;;;9.00;;
51248;SDS011;39642;47.556;18.728;2023-10-19T09:07:13;26.58;;;8.45;;
51248;SDS011;39642;47.556;18.728;2023-10-19T09:09:39;23.80;;;8.40;;
51248;SDS011;39642;47.556;18.728;2023-10-19T09:12:07;32.10;;;9.70;;
51248;SDS011;39642;47.556;18.728;2023-10-19T09:14:34;24.73;;;8.85;;
51248;SDS011;39642;47.556;18.728;2023-10-19T09:17:02;26.33;;;9.80;;
51248;SDS011;39642;47.556;18.728;2023-10-19T09:19:35;28.27;;;9.18;;
51248;SDS011;39642;47.556;18.728;2023-10-19T09:22:08;20.95;;;8.95;;
51248;SDS011;39642;47.556;18.728;2023-10-19T09:24:47;19.98;;;8.90;;
51248;SDS011;39642;47.556;18.728;2023-10-19T09:27:18;23.98;;;9.35;;
51248;SDS011;39642;47.556;18.728;2023-10-19T09:29:45;22.33;;;9.52;;
51248;SDS011;39642;47.556;18.728;2023-10-19T09:32:12;24.48;;;8.68;;
51248;SDS011;39642;47.556;18.728;2023-10-19T09:34:41;22.90;;;8.30;;
51248;SDS011;39642;47.556;18.728;2023-10-19T09:37:09;16.65;;;7.90;;
51248;SDS011;39642;47.556;18.728;2023-10-19T09:39:35;17.87;;;8.40;;
51248;SDS011;39642;47.556;18.728;2023-10-19T09:42:02;19.17;;;8.88;;
51248;SDS011;39642;47.556;18.728;2023-10-19T09:44:32;16.00;;;8.13;;
51248;SDS011;39642;47.556;18.728;2023-10-19T09:47:07;23.62;;;9.52;;
51248;SDS011;39642;47.556;18.728;2023-10-19T09:49:41;21.17;;;9.50;;
51248;SDS011;39642;47.556;18.728;2023-10-19T09:52:08;21.42;;;8.63;;
51248;SDS011;39642;47.556;18.728;2023-10-19T09:57:21;23.77;;;10.23;;
51248;SDS011;39642;47.556;18.728;2023-10-19T09:59:56;27.87;;;9.68;;
51248;SDS011;39642;47.556;18.728;2023-10-19T10:02:25;32.60;;;10.32;;
51248;SDS011;39642;47.556;18.728;2023-10-19T10:04:53;25.35;;;10.52;;
51248;SDS011;39642;47.556;18.728;2023-10-19T10:07:20;22.70;;;9.93;;
51248;SDS011;39642;47.556;18.728;2023-10-19T10:09:46;22.73;;;10.25;;
51248;SDS011;39642;47.556;18.728;2023-10-19T10:12:18;32.35;;;10.63;;
51248;SDS011;39642;47.556;18.728;2023-10-19T10:14:53;21.85;;;9.57;;
51248;SDS011;39642;47.556;18.728;2023-10-19T10:17:21;23.33;;;9.93;;
51248;SDS011;39642;47.556;18.728;2023-10-19T10:19:48;17.05;;;9.38;;
51248;SDS011;39642;47.556;18.728;2023-10-19T10:22:14;22.67;;;9.82;;
51248;SDS011;39642;47.556;18.728;2023-10-19T10:24:41;19.80;;;9.65;;
51248;SDS011;39642;47.556;18.728;2023-10-19T10:27:08;18.37;;;9.75;;
51248;SDS011;39642;47.556;18.728;2023-10-19T10:29:35;20.52;;;10.15;;
51248;SDS011;39642;47.556;18.728;2023-10-19T10:32:01;19.33;;;8.65;;
51248;SDS011;39642;47.556;18.728;2023-10-19T10:37:03;21.48;;;10.27;;
51248;SDS011;39642;47.556;18.728;2023-10-19T10:39:31;24.45;;;10.38;;
51248;SDS011;39642;47.556;18.728;2023-10-19T10:41:58;28.87;;;11.23;;
51248;SDS011;39642;47.556;18.728;2023-10-19T10:44:43;30.52;;;10.65;;
51248;SDS011;39642;47.556;18.728;2023-10-19T10:47:12;22.50;;;10.32;;
51248;SDS011;39642;47.556;18.728;2023-10-19T10:52:27;35.90;;;10.75;;
51248;SDS011;39642;47.556;18.728;2023-10-19T10:54:55;21.60;;;10.52;;
51248;SDS011;39642;47.556;18.728;2023-10-19T10:57:22;26.55;;;10.98;;
51248;SDS011;39642;47.556;18.728;2023-10-19T11:00:05;22.77;;;11.68;;
51248;SDS011;39642;47.556;18.728;2023-10-19T11:02:45;28.55;;;10.90;;
51248;SDS011;39642;47.556;18.728;2023-10-19T11:05:13;22.83;;;10.93;;
51248;SDS011;39642;47.556;18.728;2023-10-19T11:07:40;28.05;;;11.38;;
51248;SDS011;39642;47.556;18.728;2023-10-19T11:10:07;28.62;;;10.52;;
51248;SDS011;39642;47.556;18.728;2023-10-19T11:12:35;26.90;;;10.15;;
51248;SDS011;39642;47.556;18.728;2023-10-19T11:15:01;29.50;;;10.52;;
51248;SDS011;39642;47.556;18.728;2023-10-19T11:17:41;26.35;;;9.40;;
51248;SDS011;39642;47.556;18.728;2023-10-19T11:20:09;22.52;;;9.25;;
51248;SDS011;39642;47.556;18.728;2023-10-19T11:22:49;27.13;;;10.95;;
51248;SDS011;39642;47.556;18.728;2023-10-19T11:25:17;25.77;;;9.50;;
51248;SDS011;39642;47.556;18.728;2023-10-19T11:27:47;23.67;;;9.43;;
51248;SDS011;39642;47.556;18.728;2023-10-19T11:30:13;23.20;;;9.43;;
51248;SDS011;39642;47.556;18.728;2023-10-19T11:32:47;24.37;;;9.38;;
51248;SDS011;39642;47.556;18.728;2023-10-19T11:35:13;28.12;;;10.27;;
51248;SDS011;39642;47.556;18.728;2023-10-19T11:37:49;23.48;;;9.02;;
51248;SDS011;39642;47.556;18.728;2023-10-19T11:40:15;25.50;;;9.40;;
51248;SDS011;39642;47.556;18.728;2023-10-19T11:42:42;27.42;;;9.70;;
51248;SDS011;39642;47.556;18.728;2023-10-19T11:45:08;28.65;;;9.75;;
51248;SDS011;39642;47.556;18.728;2023-10-19T11:47:34;25.65;;;9.55;;
51248;SDS011;39642;47.556;18.728;2023-10-19T11:50:00;20.88;;;10.48;;
51248;SDS011;39642;47.556;18.728;2023-10-19T11:52:26;20.67;;;10.30;;
51248;SDS011;39642;47.556;18.728;2023-10-19T11:54:55;20.80;;;10.45;;
51248;SDS011;39642;47.556;18.728;2023-10-19T11:57:21;21.17;;;10.15;;
51248;SDS011;39642;47.556;18.728;2023-10-19T11:59:46;23.30;;;10.38;;
51248;SDS011;39642;47.556;18.728;2023-10-19T12:02:18;29.45;;;9.27;;
51248;SDS011;39642;47.556;18.728;2023-10-19T12:04:44;26.73;;;9.75;;
51248;SDS011;39642;47.556;18.728;2023-10-19T12:07:11;26.50;;;9.07;;
51248;SDS011;39642;47.556;18.728;2023-10-19T12:09:37;21.40;;;9.00;;
51248;SDS011;39642;47.556;18.728;2023-10-19T12:12:03;23.05;;;8.95;;
51248;SDS011;39642;47.556;18.728;2023-10-19T12:14:31;19.42;;;9.30;;
51248;SDS011;39642;47.556;18.728;2023-10-19T12:17:01;19.75;;;8.95;;
51248;SDS011;39642;47.556;18.728;2023-10-19T12:19:30;22.30;;;9.30;;
51248;SDS011;39642;47.556;18.728;2023-10-19T12:21:56;23.77;;;9.13;;
51248;SDS011;39642;47.556;18.728;2023-10-19T12:24:23;25.20;;;9.05;;
51248;SDS011;39642;47.556;18.728;2023-10-19T12:26:49;25.73;;;9.10;;
51248;SDS011;39642;47.556;18.728;2023-10-19T12:29:16;29.70;;;8.60;;
51248;SDS011;39642;47.556;18.728;2023-10-19T12:31:42;61.75;;;12.13;;
51248;SDS011;39642;47.556;18.728;2023-10-19T12:34:08;47.72;;;11.07;;
51248;SDS011;39642;47.556;18.728;2023-10-19T12:36:37;42.30;;;10.05;;
51248;SDS011;39642;47.556;18.728;2023-10-19T12:39:03;32.40;;;10.00;;
51248;SDS011;39642;47.556;18.728;2023-10-19T12:41:32;35.08;;;9.75;;
51248;SDS011;39642;47.556;18.728;2023-10-19T12:43:58;40.72;;;10.80;;
51248;SDS011;39642;47.556;18.728;2023-10-19T12:46:26;31.65;;;9.85;;
51248;SDS011;39642;47.556;18.728;2023-10-19T12:48:55;35.42;;;10.23;;
51248;SDS011;39642;47.556;18.728;2023-10-19T12:51:22;38.20;;;11.23;;
51248;SDS011;39642;47.556;18.728;2023-10-19T12:53:51;32.95;;;10.52;;
51248;SDS011;39642;47.556;18.728;2023-10-19T12:56:21;36.08;;;10.90;;
51248;SDS011;39642;47.556;18.728;2023-10-19T12:58:54;28.00;;;9.82;;
51248;SDS011;39642;47.556;18.728;2023-10-19T13:01:20;28.15;;;9.55;;
51248;SDS011;39642;47.556;18.728;2023-10-19T13:03:47;23.83;;;9.77;;
51248;SDS011;39642;47.556;18.728;2023-10-19T13:06:14;26.48;;;10.57;;
51248;SDS011;39642;47.556;18.728;2023-10-19T13:08:41;22.95;;;9.88;;
51248;SDS011;39642;47.556;18.728;2023-10-19T13:11:07;24.75;;;10.38;;
51248;SDS011;39642;47.556;18.728;2023-10-19T13:13:35;32.03;;;11.00;;
51248;SDS011;39642;47.556;18.728;2023-10-19T13:16:05;23.73;;;10.15;;
51248;SDS011;39642;47.556;18.728;2023-10-19T13:18:35;32.55;;;10.45;;
51248;SDS011;39642;47.556;18.728;2023-10-19T13:21:01;29.37;;;10.07;;
51248;SDS011;39642;47.556;18.728;2023-10-19T13:23:33;30.77;;;10.20;;
51248;SDS011;39642;47.556;18.728;2023-10-19T13:25:59;29.65;;;10.43;;
51248;SDS011;39642;47.556;18.728;2023-10-19T13:28:43;36.40;;;11.27;;
51248;SDS011;39642;47.556;18.728;2023-10-19T13:31:09;33.90;;;11.10;;
51248;SDS011;39642;47.556;18.728;2023-10-19T13:33:35;47.65;;;11.57;;
51248;SDS011;39642;47.556;18.728;2023-10-19T13:36:01;36.67;;;12.07;;
51248;SDS011;39642;47.556;18.728;2023-10-19T13:38:28;51.40;;;11.93;;
51248;SDS011;39642;47.556;18.728;2023-10-19T13:40:54;40.25;;;11.82;;
51248;SDS011;39642;47.556;18.728;2023-10-19T13:43:19;36.03;;;11.02;;
51248;SDS011;39642;47.556;18.728;2023-10-19T13:45:46;36.13;;;11.85;;
51248;SDS011;39642;47.556;18.728;2023-10-19T13:48:14;38.78;;;11.25;;
51248;SDS011;39642;47.556;18.728;2023-10-19T13:50:47;39.58;;;10.23;;
51248;SDS011;39642;47.556;18.728;2023-10-19T13:53:14;36.15;;;10.18;;
51248;SDS011;39642;47.556;18.728;2023-10-19T13:55:41;32.28;;;10.65;;
51248;SDS011;39642;47.556;18.728;2023-10-19T13:58:07;25.17;;;10.38;;
51248;SDS011;39642;47.556;18.728;2023-10-19T14:00:33;32.55;;;10.80;;
51248;SDS011;39642;47.556;18.728;2023-10-19T14:03:00;40.17;;;10.60;;
51248;SDS011;39642;47.556;18.728;2023-10-19T14:05:28;28.62;;;10.63;;
51248;SDS011;39642;47.556;18.728;2023-10-19T14:07:55;27.13;;;10.27;;
51248;SDS011;39642;47.556;18.728;2023-10-19T14:10:21;25.30;;;10.52;;
51248;SDS011;39642;47.556;18.728;2023-10-19T14:12:47;30.00;;;10.75;;
51248;SDS011;39642;47.556;18.728;2023-10-19T14:15:15;25.25;;;10.48;;
51248;SDS011;39642;47.556;18.728;2023-10-19T14:17:43;30.90;;;11.63;;
51248;SDS011;39642;47.556;18.728;2023-10-19T14:20:13;24.08;;;10.27;;
51248;SDS011;39642;47.556;18.728;2023-10-19T14:22:44;32.75;;;10.63;;
51248;SDS011;39642;47.556;18.728;2023-10-19T14:25:11;31.08;;;11.12;;
51248;SDS011;39642;47.556;18.728;2023-10-19T14:27:48;31.20;;;10.95;;
51248;SDS011;39642;47.556;18.728;2023-10-19T14:30:16;23.35;;;11.12;;
51248;SDS011;39642;47.556;18.728;2023-10-19T14:32:47;21.75;;;10.43;;
51248;SDS011;39642;47.556;18.728;2023-10-19T14:35:13;26.12;;;11.35;;
51248;SDS011;39642;47.556;18.728;2023-10-19T14:37:46;26.10;;;11.35;;
51248;SDS011;39642;47.556;18.728;2023-10-19T14:40:20;26.27;;;10.65;;
51248;SDS011;39642;47.556;18.728;2023-10-19T14:45:16;26.52;;;10.40;;